17:41
Airports
History
Links
Donate
Help keep this website running!
PayPal
Bitcoin
This page is community maintained. The information is intended for PC simulator navigation or reference.
Always use approved charts for navigation.
LNMC
Heliport Monaco
Heliport Monaco (LNMC)
Monaco, Monaco (98000)
(C)
Lat/Lng:43° 43' 36" N / 7° 25' 13" E
43.726667 / 7.420278
Elevation:18'ft / 5mMSL
ID / ICAO:LNMC
Runways:1
Longest:05-23
Concrete 48m / 158ft
Controlled:Yes
Nearby Weather17:30 GMT 2018-01-18
Nearby weather at LFMN, Nice/Cote d'Azur located 11.3 nautical miles from LNMC
Altimeter: 29.88
Visibility: 6.2 statute miles
Wind: 9 knots (from 070°)
Temp: 11°c / 52°f
Humidity: 57.7%

METAR: LFMN 181730Z 07009KT CAVOK 11/03 Q1012 NOSIG

(Powered by phpweather)
Airport Radio Frequencies
Tower: 123.02
Nearby VORs <50NM
Nearby NDBs
Runway 05 / 23
Dimensions:48.3 x 50m 158' x 164'ft
Surface:Concrete
Runway 05 [A]Runway 23 [B]
Heading:049°TH 229°TH
Lat:
Lng:
43° 43' 35.47"N
7° 25' 12.16"E
43° 43' 36.53"N
7° 25' 13.85"E
User Notes and Comments
43° 43' 36" N / 7° 25' 13" E
Distance To
Airport ID:
Nearby Airports
(C) Nice/Cote d'Azur 11.3 NM
LFMN ( WX ) WSW 244°
(C) Mandelieu 26.4 NM
LFMD ( WX ) WSW 241°
(C) Fayence 37.2 NM
LFMF WSW 257°
(U) ALBENGA 41.7 NM
LIMG ( WX ) ENE 57°
(C) Le Cannet 56.9 NM
LFMC ( WX ) WSW 245°
(U) LEVALDIGI 57.6 NM
LIMZ N 10°
(C) La Mole 59.2 NM
LFTZ SW 232°
VFR Chart
Flight Planning at SkyVector.com